Fort Benning, Lawson Army Airfield (KLSF)

NameLawson Army Airfield
CityFort Benning
CountryUnited States
ICAOKLSF
IATALSF
Altitude71 m
CoordinatesGoogle Map
Live Air TrafficLiveATC.net
METARKLSF 230756Z AUTO 00000KT 10SM CLR 24/24 A3000 RMK AO2 SLP161 T02380238
2019-08-23 07:56:00 Wind: North (0°) 0 m/s - Visibility: 16093.4 m - Temperature: 24 °C - Dew point: 24 °C - Humidity: 100% - Pressure: 1015.92 hPa

Sorry, no flights used the airport in this database.